createdAt,value
2023-04-16T00:02:09.128Z,14.8
2023-04-16T00:12:17.814Z,14.6
2023-04-16T00:22:26.667Z,14.3
2023-04-16T00:32:35.281Z,14.1
2023-04-16T00:42:43.903Z,13.9
2023-04-16T00:52:52.385Z,13.8
2023-04-16T01:03:01.257Z,13.8
2023-04-16T01:13:09.694Z,13.5
2023-04-16T01:23:18.236Z,13.6
2023-04-16T01:33:26.859Z,13.4
2023-04-16T01:43:35.596Z,13.4
2023-04-16T01:53:43.856Z,13.1
2023-04-16T02:03:52.532Z,13.2
2023-04-16T02:14:01.261Z,13.3
2023-04-16T02:24:10.040Z,13.3
2023-04-16T02:34:18.781Z,13.1
2023-04-16T02:44:27.423Z,12.9
2023-04-16T02:54:36.170Z,12.8
2023-04-16T03:04:44.878Z,12.6
2023-04-16T03:14:54.789Z,12.6
2023-04-16T03:25:03.446Z,12.8
2023-04-16T03:35:12.098Z,12.6
2023-04-16T03:45:20.731Z,12.5
2023-04-16T03:55:29.489Z,12.5
2023-04-16T04:05:38.318Z,12.5
2023-04-16T04:15:47.017Z,12.6
2023-04-16T04:25:55.742Z,12.9
2023-04-16T04:36:04.455Z,12.9
2023-04-16T04:46:13.217Z,12.8
2023-04-16T04:56:21.913Z,12.7
2023-04-16T05:06:30.523Z,12.8
2023-04-16T05:16:39.328Z,12.8
2023-04-16T05:26:48.058Z,12.9
2023-04-16T05:36:56.693Z,13
2023-04-16T05:47:05.398Z,13
2023-04-16T05:57:14.036Z,13.1
2023-04-16T06:07:22.723Z,13.2
2023-04-16T06:17:31.421Z,13.2
2023-04-16T06:27:40.106Z,13.1
2023-04-16T06:37:48.775Z,13.4
2023-04-16T06:47:57.532Z,13.6
2023-04-16T06:58:06.253Z,13.6
2023-04-16T07:08:14.960Z,13.7
2023-04-16T07:18:23.703Z,14
2023-04-16T07:28:32.493Z,15.6
2023-04-16T07:38:41.252Z,17
2023-04-16T07:48:50.209Z,18.4
2023-04-16T07:59:05.405Z,18.5
2023-04-16T08:09:07.824Z,19.1
2023-04-16T08:19:15.567Z,19.3
2023-04-16T08:29:24.401Z,20.4
2023-04-16T08:39:33.339Z,20.4
2023-04-16T08:49:42.422Z,20.9
2023-04-16T08:59:51.142Z,21.5
2023-04-16T09:10:01.268Z,21.6
2023-04-16T09:20:00.278Z,21.9
2023-04-16T09:30:08.976Z,22.8
2023-04-16T09:40:17.833Z,22.8
2023-04-16T09:50:26.971Z,22.2
2023-04-16T10:00:27.070Z,22.8
2023-04-16T10:10:34.878Z,23.9
2023-04-16T10:20:44.007Z,22.2
2023-04-16T10:30:53.004Z,21.7
2023-04-16T10:40:54.507Z,21.8
2023-04-16T10:51:03.262Z,21.6
2023-04-16T11:01:12.055Z,21.7
2023-04-16T11:11:21.004Z,21.3
2023-04-16T11:21:30.859Z,21.1
2023-04-16T11:31:39.575Z,21
2023-04-16T11:41:48.532Z,21.3
2023-04-16T11:51:57.328Z,21.9
2023-04-16T12:02:06.181Z,21.3
2023-04-16T12:12:14.811Z,21.1
2023-04-16T12:22:23.729Z,21.3
2023-04-16T12:32:32.258Z,21.2
2023-04-16T12:42:41.116Z,21
2023-04-16T12:52:49.990Z,20.9
2023-04-16T13:02:59.025Z,21.1
2023-04-16T13:13:07.838Z,20.7
2023-04-16T13:23:16.823Z,20.8
2023-04-16T13:33:19.152Z,21
2023-04-16T13:43:23.828Z,20.9
2023-04-16T13:53:23.684Z,20.8
2023-04-16T14:03:24.137Z,21
2023-04-16T14:13:33.553Z,21
2023-04-16T14:23:37.416Z,20.8
2023-04-16T14:33:47.490Z,20.9
2023-04-16T14:43:57.837Z,21.3
2023-04-16T14:53:58.789Z,20.8
2023-04-16T15:04:08.848Z,21.1
2023-04-16T15:14:17.676Z,21.1
2023-04-16T15:24:26.497Z,21
2023-04-16T15:34:35.516Z,21
2023-04-16T15:44:35.627Z,21.4
2023-04-16T15:54:44.531Z,20.9
2023-04-16T16:04:53.409Z,21.4
2023-04-16T16:15:02.350Z,21.2
2023-04-16T16:25:11.525Z,21.4
2023-04-16T16:35:20.569Z,21.2
2023-04-16T16:45:30.089Z,21
2023-04-16T16:55:35.760Z,20.6
2023-04-16T17:05:40.431Z,20.4
2023-04-16T17:15:42.755Z,20.4
2023-04-16T17:25:43.548Z,20.2
2023-04-16T17:35:51.222Z,20.1
2023-04-16T17:45:52.290Z,20
2023-04-16T17:55:59.890Z,19.3
2023-04-16T18:05:56.205Z,19.4
2023-04-16T18:16:03.848Z,19
2023-04-16T18:26:12.975Z,19.3
2023-04-16T18:36:20.390Z,19
2023-04-16T18:46:29.060Z,18.8
2023-04-16T18:56:37.871Z,18.7
2023-04-16T19:06:46.896Z,18.1
2023-04-16T19:16:56.643Z,18.3
2023-04-16T19:27:09.656Z,18.3
2023-04-16T19:37:12.238Z,18.2
2023-04-16T19:47:20.910Z,17.8
2023-04-16T19:57:29.544Z,17.5
2023-04-16T20:07:38.051Z,17.7
2023-04-16T20:17:46.293Z,17.6
2023-04-16T20:27:55.039Z,17.5
2023-04-16T20:38:06.330Z,17.3
2023-04-16T20:48:05.109Z,17.4
2023-04-16T20:58:14.307Z,17.2
2023-04-16T21:08:23.175Z,16.8
2023-04-16T21:18:32.086Z,16.3
2023-04-16T21:28:40.911Z,16.1
2023-04-16T21:38:50.288Z,15.9
2023-04-16T21:48:58.978Z,16
2023-04-16T21:59:07.686Z,16.1
2023-04-16T22:09:16.248Z,15.7
2023-04-16T22:19:25.030Z,15.4
2023-04-16T22:29:33.733Z,15.2
2023-04-16T22:39:42.360Z,15.1
2023-04-16T22:49:51.004Z,14.8
2023-04-16T22:59:59.774Z,14.6
2023-04-16T23:10:08.701Z,14.7
2023-04-16T23:20:17.234Z,14.5
2023-04-16T23:30:26.074Z,14.3
2023-04-16T23:40:34.727Z,14.3
2023-04-16T23:50:43.376Z,14.1
